Time;durP1;ratioP1;P1;durP2;ratioP2;P2;SDS_P1;SDS_P2;PMS_P1;PMS_P2;Temp;Humidity;BMP_temperature;BMP_pressure;BME280_temperature;BME280_humidity;BME280_pressure;Samples;Min_cycle;Max_cycle;Signal;HPM_P1;HPM_P2
2022/02/21 00:01:19;;;;;;;1.03;0.40;;;8.60;99.90;;;;;;5063903;28;20194;-44
2022/02/21 00:03:46;;;;;;;3.83;0.90;;;8.40;99.90;;;;;;5058445;28;20211;-44
2022/02/21 00:06:14;;;;;;;3.17;0.73;;;8.30;99.90;;;;;;5062028;28;20210;-44
2022/02/21 00:08:42;;;;;;;3.10;1.27;;;8.20;99.90;;;;;;5065355;28;20195;-44
2022/02/21 00:11:08;;;;;;;2.40;0.53;;;8.10;99.90;;;;;;5061584;28;20195;-44
2022/02/21 00:13:36;;;;;;;2.73;0.50;;;8.00;99.90;;;;;;5058395;28;20290;-47
2022/02/21 00:16:04;;;;;;;6.73;1.00;;;7.90;99.90;;;;;;5061090;28;20252;-42
2022/02/21 00:18:30;;;;;;;5.20;1.00;;;7.90;99.90;;;;;;5051593;28;20577;-43
2022/02/21 00:20:57;;;;;;;4.93;1.87;;;7.80;99.90;;;;;;5061955;28;20222;-45
2022/02/21 00:23:24;;;;;;;3.50;0.90;;;7.80;99.90;;;;;;5064455;28;20203;-45
2022/02/21 00:25:50;;;;;;;3.90;0.93;;;7.70;99.90;;;;;;5063113;28;20215;-43
2022/02/21 00:28:17;;;;;;;3.83;0.70;;;7.70;99.90;;;;;;5063170;28;20906;-42
2022/02/21 00:30:45;;;;;;;4.27;0.60;;;7.60;99.90;;;;;;5057659;28;20227;-42
2022/02/21 00:33:13;;;;;;;4.23;0.70;;;7.50;99.90;;;;;;5047783;28;23670;-45
2022/02/21 00:35:40;;;;;;;2.63;0.70;;;7.50;99.90;;;;;;5064696;28;20197;-44
2022/02/21 00:38:07;;;;;;;1.80;0.77;;;7.40;99.90;;;;;;5060366;28;20242;-47
2022/02/21 00:40:34;;;;;;;1.00;0.60;;;7.30;99.90;;;;;;5064645;28;20214;-43
2022/02/21 00:43:02;;;;;;;1.23;0.50;;;7.30;99.90;;;;;;5059723;28;20717;-43
2022/02/21 00:45:29;;;;;;;2.60;0.80;;;7.20;99.90;;;;;;5057757;28;20218;-43
2022/02/21 00:47:56;;;;;;;2.53;0.40;;;7.20;99.90;;;;;;5052550;28;20629;-43
2022/02/21 00:50:26;;;;;;;1.13;0.50;;;7.20;99.90;;;;;;5060039;28;20238;-44
2022/02/21 00:52:53;;;;;;;1.37;0.40;;;7.10;99.90;;;;;;5062343;28;20198;-45
2022/02/21 00:55:21;;;;;;;2.23;0.30;;;7.00;99.90;;;;;;5063184;28;20203;-44
2022/02/21 00:57:48;;;;;;;1.07;0.30;;;6.90;99.90;;;;;;5063147;28;20205;-44
2022/02/21 01:00:17;;;;;;;0.43;0.30;;;6.80;99.90;;;;;;5054829;28;20226;-42
2022/02/21 01:02:47;;;;;;;0.53;0.30;;;6.80;99.90;;;;;;5060160;28;20226;-42
2022/02/21 01:05:14;;;;;;;1.93;0.43;;;6.70;99.90;;;;;;5051974;28;20225;-42
2022/02/21 01:07:42;;;;;;;1.27;0.20;;;6.70;99.90;;;;;;5063688;28;20717;-42
2022/02/21 01:10:09;;;;;;;1.00;0.30;;;6.60;99.90;;;;;;5060012;28;20241;-43
2022/02/21 01:12:36;;;;;;;2.43;0.40;;;6.60;99.90;;;;;;5064232;28;20210;-44
2022/02/21 01:15:05;;;;;;;0.17;0.17;;;6.60;99.90;;;;;;5053024;28;20195;-47
2022/02/21 01:17:32;;;;;;;2.07;0.23;;;6.60;99.90;;;;;;5063763;28;20202;-45
2022/02/21 01:20:03;;;;;;;0.53;0.30;;;6.60;99.90;;;;;;5046918;28;20767;-46
2022/02/21 01:22:31;;;;;;;0.47;0.20;;;6.60;99.90;;;;;;5063486;28;20263;-45
2022/02/21 01:24:59;;;;;;;0.50;0.10;;;6.50;99.90;;;;;;5060877;28;20313;-45
2022/02/21 01:27:26;;;;;;;0.50;0.23;;;6.50;99.90;;;;;;5063176;28;20710;-48
2022/02/21 01:29:53;;;;;;;0.40;0.30;;;6.50;99.90;;;;;;5054558;28;20245;-44
2022/02/21 01:32:21;;;;;;;0.93;0.20;;;6.50;99.90;;;;;;5062491;28;20201;-46
2022/02/21 01:34:48;;;;;;;0.57;0.20;;;6.60;99.90;;;;;;5058128;28;20257;-44
2022/02/21 01:37:15;;;;;;;2.60;0.30;;;6.60;99.90;;;;;;5052072;28;20257;-43
2022/02/21 01:39:42;;;;;;;1.30;0.30;;;6.60;99.90;;;;;;5063645;28;20225;-42
2022/02/21 01:42:11;;;;;;;0.63;0.10;;;6.60;99.90;;;;;;5059463;28;20201;-44
2022/02/21 01:44:40;;;;;;;0.40;0.20;;;6.60;99.90;;;;;;5063616;28;20209;-43
2022/02/21 01:47:12;;;;;;;0.90;0.33;;;6.60;99.90;;;;;;5052370;28;20353;-45
2022/02/21 01:49:39;;;;;;;1.20;0.30;;;6.50;99.90;;;;;;5082731;28;20218;-43
2022/02/21 01:52:07;;;;;;;1.10;0.30;;;6.50;99.90;;;;;;5053882;28;20228;-45
2022/02/21 01:54:34;;;;;;;0.73;0.53;;;6.40;99.90;;;;;;5063064;28;20191;-46
2022/02/21 01:57:01;;;;;;;3.37;0.50;;;6.30;99.90;;;;;;5059438;28;20202;-42
2022/02/21 01:59:29;;;;;;;5.03;0.50;;;6.20;99.90;;;;;;5063544;28;20219;-43
2022/02/21 02:01:56;;;;;;;3.43;0.50;;;6.10;99.90;;;;;;5053980;28;20207;-43
2022/02/21 02:04:25;;;;;;;2.83;0.70;;;6.00;99.90;;;;;;5062024;28;20238;-42
2022/02/21 02:06:53;;;;;;;2.90;0.60;;;5.90;99.90;;;;;;5055046;28;20210;-42
2022/02/21 02:09:20;;;;;;;2.53;0.60;;;5.80;99.90;;;;;;5057387;28;20222;-42
2022/02/21 02:11:47;;;;;;;1.23;0.33;;;5.80;99.90;;;;;;5055666;28;20194;-44
2022/02/21 02:14:32;;;;;;;2.17;0.50;;;5.70;99.90;;;;;;5053739;28;20959;-44
2022/02/21 02:17:02;;;;;;;5.20;0.67;;;5.60;99.90;;;;;;5052736;28;20210;-42
2022/02/21 02:19:29;;;;;;;5.20;1.03;;;5.50;99.90;;;;;;5063116;28;20215;-43
2022/02/21 02:21:57;;;;;;;2.67;0.50;;;5.50;99.90;;;;;;5051021;28;20574;-46
2022/02/21 02:24:26;;;;;;;2.63;0.40;;;5.40;99.90;;;;;;5059266;28;20547;-45
2022/02/21 02:26:54;;;;;;;5.43;0.60;;;5.40;99.90;;;;;;5060681;28;20616;-46
2022/02/21 02:29:22;;;;;;;3.17;1.13;;;5.30;99.90;;;;;;5061801;28;20947;-45
2022/02/21 02:31:48;;;;;;;2.30;0.60;;;5.30;99.90;;;;;;5061255;28;20202;-42
2022/02/21 02:34:16;;;;;;;2.50;0.57;;;5.30;99.90;;;;;;5054899;28;20205;-43
2022/02/21 02:36:44;;;;;;;2.70;0.90;;;5.30;99.90;;;;;;5062702;28;20537;-44
2022/02/21 02:39:12;;;;;;;3.77;1.17;;;5.30;99.90;;;;;;5049482;28;20241;-43
2022/02/21 02:41:41;;;;;;;6.63;1.43;;;5.30;99.90;;;;;;5063204;28;20757;-44
2022/02/21 02:44:08;;;;;;;9.03;1.50;;;5.30;99.90;;;;;;5058640;28;20286;-47
2022/02/21 02:46:35;;;;;;;6.03;1.17;;;5.40;99.90;;;;;;5062474;28;20252;-46
2022/02/21 02:49:02;;;;;;;7.53;2.40;;;5.40;99.90;;;;;;5051859;28;20226;-43
2022/02/21 02:51:28;;;;;;;9.60;1.83;;;5.40;99.90;;;;;;5063040;28;20203;-44
2022/02/21 02:53:55;;;;;;;5.90;2.13;;;5.50;99.90;;;;;;5046524;28;20895;-43
2022/02/21 02:56:22;;;;;;;10.90;1.57;;;5.50;99.90;;;;;;5061704;28;20198;-42
2022/02/21 02:58:50;;;;;;;8.37;1.53;;;5.30;99.90;;;;;;5061620;28;20284;-44
2022/02/21 03:01:17;;;;;;;8.97;2.13;;;5.10;99.90;;;;;;5060187;28;20201;-45
2022/02/21 03:03:44;;;;;;;9.77;1.70;;;5.10;99.90;;;;;;5055863;28;20283;-43
2022/02/21 03:06:11;;;;;;;10.80;2.33;;;5.10;99.90;;;;;;5059413;28;20268;-42
2022/02/21 03:08:38;;;;;;;17.67;3.17;;;5.20;99.90;;;;;;5052985;28;20206;-45
2022/02/21 03:11:04;;;;;;;22.60;4.17;;;5.30;99.90;;;;;;5061940;28;20790;-46
2022/02/21 03:13:32;;;;;;;26.03;3.80;;;5.30;99.90;;;;;;5066509;28;20659;-45
2022/02/21 03:16:00;;;;;;;15.43;2.43;;;5.40;99.90;;;;;;5062666;28;20557;-43
2022/02/21 03:18:27;;;;;;;14.23;3.00;;;5.40;99.90;;;;;;5066541;28;20273;-45
2022/02/21 03:20:54;;;;;;;24.20;3.57;;;5.50;99.90;;;;;;5056925;28;20250;-44
2022/02/21 03:23:20;;;;;;;18.67;3.10;;;5.60;99.90;;;;;;5051233;28;20485;-44
2022/02/21 03:25:47;;;;;;;15.63;3.40;;;5.60;99.90;;;;;;5067334;28;20688;-46
2022/02/21 03:28:14;;;;;;;24.00;3.57;;;5.60;99.90;;;;;;5063274;28;20206;-43
2022/02/21 03:30:41;;;;;;;24.00;3.93;;;5.60;99.90;;;;;;5065925;28;20229;-44
2022/02/21 03:33:10;;;;;;;18.13;4.27;;;5.50;99.90;;;;;;5061663;28;20191;-43
2022/02/21 03:35:37;;;;;;;11.33;2.87;;;5.60;99.90;;;;;;5058830;28;20286;-43
2022/02/21 03:38:04;;;;;;;19.83;3.43;;;5.60;99.90;;;;;;5047981;28;20899;-43
2022/02/21 03:40:31;;;;;;;17.50;3.77;;;5.50;99.90;;;;;;5065664;28;20223;-42
2022/02/21 03:42:58;;;;;;;14.73;2.67;;;5.50;99.90;;;;;;5062659;28;20207;-44
2022/02/21 03:45:24;;;;;;;12.97;2.60;;;5.40;99.90;;;;;;5065275;28;20219;-45
2022/02/21 03:47:53;;;;;;;9.23;2.37;;;5.20;99.90;;;;;;5063745;28;20222;-44
2022/02/21 03:50:21;;;;;;;15.90;3.37;;;5.00;99.90;;;;;;5057180;28;20842;-48
2022/02/21 03:52:49;;;;;;;22.63;3.90;;;4.90;99.90;;;;;;5060121;28;20230;-43
2022/02/21 03:55:16;;;;;;;15.07;3.00;;;4.90;99.90;;;;;;5055086;28;20198;-45
2022/02/21 03:57:43;;;;;;;15.43;3.17;;;4.80;99.90;;;;;;5065048;28;20198;-45
2022/02/21 04:00:13;;;;;;;22.30;4.77;;;4.80;99.90;;;;;;5061660;28;20229;-43
2022/02/21 04:02:41;;;;;;;19.07;4.77;;;4.80;99.90;;;;;;5065539;28;20191;-43
2022/02/21 04:05:09;;;;;;;18.00;3.33;;;4.80;99.90;;;;;;5060800;28;20219;-43
2022/02/21 04:07:41;;;;;;;15.57;3.20;;;4.70;99.90;;;;;;5058138;28;20213;-47
2022/02/21 04:10:09;;;;;;;21.30;4.07;;;4.70;99.90;;;;;;5047971;28;20250;-49
2022/02/21 04:12:36;;;;;;;14.47;2.90;;;4.90;99.90;;;;;;5065062;28;20202;-47
2022/02/21 04:15:04;;;;;;;26.70;4.00;;;4.90;99.90;;;;;;5061207;28;20197;-43
2022/02/21 04:17:40;;;;;;;19.30;3.77;;;5.00;99.90;;;;;;5064319;28;20207;-43
2022/02/21 04:20:10;;;;;;;13.37;3.63;;;5.00;99.90;;;;;;5060777;28;20218;-47
2022/02/21 04:22:38;;;;;;;18.30;3.73;;;5.10;99.90;;;;;;5069573;28;20566;-45
2022/02/21 04:25:07;;;;;;;15.53;3.77;;;5.10;99.90;;;;;;5047176;28;21000;-42
2022/02/21 04:27:40;;;;;;;14.30;3.67;;;5.10;99.90;;;;;;5064519;28;20644;-44
2022/02/21 04:30:08;;;;;;;12.87;2.77;;;5.20;99.90;;;;;;5060676;28;20230;-44
2022/02/21 04:32:38;;;;;;;15.00;3.57;;;5.20;99.90;;;;;;5064636;28;20339;-43
2022/02/21 04:35:06;;;;;;;17.50;2.90;;;5.30;99.90;;;;;;5065891;28;20907;-44
2022/02/21 04:37:33;;;;;;;13.67;3.27;;;5.20;99.90;;;;;;5065926;28;20194;-45
2022/02/21 04:40:02;;;;;;;14.07;2.97;;;5.20;99.90;;;;;;5056117;28;20309;-44
2022/02/21 04:42:28;;;;;;;9.17;2.73;;;5.30;99.90;;;;;;5061599;28;20210;-44
2022/02/21 04:44:57;;;;;;;11.30;2.57;;;5.20;99.90;;;;;;5055295;28;20217;-43
2022/02/21 04:47:23;;;;;;;7.97;2.07;;;5.10;99.90;;;;;;5063063;28;20213;-44
2022/02/21 04:49:50;;;;;;;15.90;3.27;;;5.10;99.90;;;;;;5062749;28;20222;-46
2022/02/21 04:52:18;;;;;;;9.17;2.10;;;5.00;99.90;;;;;;5048956;28;20544;-44
2022/02/21 04:54:44;;;;;;;9.93;1.83;;;4.90;99.90;;;;;;5081836;28;20646;-42
2022/02/21 04:57:12;;;;;;;12.93;2.23;;;4.80;99.90;;;;;;5049482;28;20988;-44
2022/02/21 04:59:40;;;;;;;8.27;1.60;;;4.70;99.90;;;;;;5065372;28;20583;-45
2022/02/21 05:02:06;;;;;;;11.13;1.80;;;4.70;99.90;;;;;;5079034;28;20201;-43
2022/02/21 05:04:33;;;;;;;12.47;2.40;;;4.70;99.90;;;;;;5066246;28;20218;-44
2022/02/21 05:07:01;;;;;;;7.50;1.43;;;4.60;99.90;;;;;;5059840;28;20214;-42
2022/02/21 05:09:27;;;;;;;8.33;2.00;;;4.60;99.90;;;;;;5063259;28;20222;-44
2022/02/21 05:11:55;;;;;;;14.03;2.07;;;4.60;99.90;;;;;;5057509;28;20213;-42
2022/02/21 05:14:23;;;;;;;10.27;2.63;;;4.60;99.90;;;;;;5062365;28;20414;-44
2022/02/21 05:16:51;;;;;;;5.70;2.10;;;4.70;99.90;;;;;;5081337;28;20198;-42
2022/02/21 05:19:17;;;;;;;15.97;2.70;;;4.60;99.90;;;;;;5081049;28;20225;-46
2022/02/21 05:21:44;;;;;;;13.40;2.33;;;4.60;99.90;;;;;;5082939;28;20209;-44
2022/02/21 05:24:10;;;;;;;8.47;2.50;;;4.70;99.90;;;;;;5067466;28;20214;-42
2022/02/21 05:26:37;;;;;;;10.07;2.13;;;4.70;99.90;;;;;;5061865;28;20222;-48
2022/02/21 05:29:05;;;;;;;14.80;2.40;;;4.60;99.90;;;;;;5058678;28;20225;-42
2022/02/21 05:31:33;;;;;;;9.53;2.50;;;4.60;99.90;;;;;;5063655;28;20202;-47
2022/02/21 05:34:00;;;;;;;16.47;2.57;;;4.60;99.90;;;;;;5059851;28;20647;-43
2022/02/21 05:36:26;;;;;;;12.90;3.53;;;4.60;99.90;;;;;;5062914;28;20651;-43
2022/02/21 05:38:53;;;;;;;11.57;2.23;;;4.50;99.90;;;;;;5058708;28;20198;-44
2022/02/21 05:41:20;;;;;;;7.90;3.00;;;4.50;99.90;;;;;;5058271;28;20209;-48
2022/02/21 05:43:46;;;;;;;17.73;3.03;;;4.50;99.90;;;;;;5049089;28;20683;-44
2022/02/21 05:46:13;;;;;;;13.47;2.87;;;4.50;99.90;;;;;;5059814;28;20219;-44
2022/02/21 05:48:41;;;;;;;7.20;2.03;;;4.50;99.90;;;;;;5063582;28;20657;-47
2022/02/21 05:51:07;;;;;;;15.17;2.77;;;4.60;99.90;;;;;;5071221;28;20194;-44
2022/02/21 05:53:34;;;;;;;14.20;2.70;;;4.50;99.90;;;;;;5082884;28;20194;-43
2022/02/21 05:56:01;;;;;;;9.07;2.13;;;4.50;99.90;;;;;;5066949;28;20198;-42
2022/02/21 05:58:27;;;;;;;15.17;2.67;;;4.60;99.90;;;;;;5062893;28;20207;-45
2022/02/21 06:00:55;;;;;;;14.00;2.63;;;4.60;99.90;;;;;;5060588;28;20218;-43
2022/02/21 06:03:22;;;;;;;16.90;3.00;;;4.60;99.90;;;;;;5062471;28;20974;-42
2022/02/21 06:05:50;;;;;;;17.63;3.07;;;4.70;99.90;;;;;;5069703;28;20306;-45
2022/02/21 06:08:17;;;;;;;9.97;2.40;;;4.60;99.90;;;;;;5061051;28;20854;-42
2022/02/21 06:10:44;;;;;;;17.13;3.37;;;4.60;99.90;;;;;;5060914;28;20224;-42
2022/02/21 06:13:10;;;;;;;11.73;2.40;;;4.60;99.90;;;;;;5078611;28;20190;-43
2022/02/21 06:15:37;;;;;;;8.27;1.57;;;4.50;99.90;;;;;;5053538;28;20218;-44
2022/02/21 06:18:04;;;;;;;11.57;1.70;;;4.50;99.90;;;;;;5058504;28;20280;-45
2022/02/21 06:20:30;;;;;;;11.03;2.77;;;4.50;99.90;;;;;;5063304;28;20218;-44
2022/02/21 06:22:58;;;;;;;14.67;2.60;;;4.40;99.90;;;;;;5060179;28;20209;-43
2022/02/21 06:25:25;;;;;;;10.77;2.10;;;4.40;99.90;;;;;;5055330;28;20850;-44
2022/02/21 06:27:52;;;;;;;13.00;1.70;;;4.40;99.90;;;;;;5060900;28;20203;-42
2022/02/21 06:30:18;;;;;;;6.80;2.17;;;4.40;99.90;;;;;;5044162;28;20434;-47
2022/02/21 06:32:45;;;;;;;9.40;2.00;;;4.40;99.90;;;;;;5062213;28;20202;-45
2022/02/21 06:35:12;;;;;;;5.03;1.63;;;4.30;99.90;;;;;;5059030;28;20190;-44
2022/02/21 06:37:43;;;;;;;7.80;1.53;;;4.20;99.90;;;;;;5062492;28;20201;-46
2022/02/21 06:40:13;;;;;;;10.97;2.57;;;4.20;99.90;;;;;;5058563;28;20323;-45
2022/02/21 06:42:40;;;;;;;14.80;2.60;;;4.10;99.90;;;;;;5059155;28;20211;-44
2022/02/21 06:45:08;;;;;;;13.47;2.43;;;4.10;99.90;;;;;;5049015;28;20411;-43
2022/02/21 06:47:35;;;;;;;9.90;2.30;;;4.10;99.90;;;;;;5066082;28;20218;-45
2022/02/21 06:50:04;;;;;;;11.20;2.33;;;4.10;99.90;;;;;;5062552;28;20226;-44
2022/02/21 06:52:31;;;;;;;11.63;3.23;;;4.10;99.90;;;;;;5066326;28;20633;-43
2022/02/21 06:54:58;;;;;;;6.07;1.80;;;4.10;99.90;;;;;;5063469;28;20198;-44
2022/02/21 06:57:27;;;;;;;12.07;2.40;;;4.10;99.90;;;;;;5059045;28;20201;-44
2022/02/21 06:59:54;;;;;;;9.57;2.43;;;4.20;99.90;;;;;;5055990;28;20364;-43
2022/02/21 07:02:21;;;;;;;9.47;2.13;;;4.20;99.90;;;;;;5060641;28;20217;-47
2022/02/21 07:04:48;;;;;;;16.03;3.20;;;4.20;99.90;;;;;;5064822;28;20198;-49
2022/02/21 07:07:16;;;;;;;14.47;2.57;;;4.20;99.90;;;;;;5063724;28;20225;-42
2022/02/21 07:09:42;;;;;;;8.17;2.13;;;4.20;99.90;;;;;;5066325;28;20737;-46
2022/02/21 07:12:09;;;;;;;12.47;2.67;;;4.30;99.90;;;;;;5055999;28;20324;-46
2022/02/21 07:14:37;;;;;;;9.53;1.90;;;4.30;99.90;;;;;;5084349;28;20663;-44
2022/02/21 07:17:04;;;;;;;9.17;2.43;;;4.30;99.90;;;;;;5056441;28;20202;-42
2022/02/21 07:19:31;;;;;;;6.77;1.97;;;4.30;99.90;;;;;;5065713;28;20218;-43
2022/02/21 07:21:59;;;;;;;8.17;2.37;;;4.20;99.90;;;;;;5062756;28;20206;-46
2022/02/21 07:24:25;;;;;;;7.60;1.90;;;4.20;99.90;;;;;;5063901;28;20659;-44
2022/02/21 07:26:52;;;;;;;16.10;2.27;;;4.20;99.90;;;;;;5063816;28;20729;-43
2022/02/21 07:29:19;;;;;;;9.57;1.93;;;4.20;99.90;;;;;;5056746;28;20434;-43
2022/02/21 07:31:46;;;;;;;12.03;2.20;;;4.20;99.90;;;;;;5051967;28;20194;-43
2022/02/21 07:34:13;;;;;;;9.00;2.17;;;4.30;99.90;;;;;;5062498;28;20198;-42
2022/02/21 07:36:40;;;;;;;3.30;1.17;;;4.30;99.90;;;;;;5065382;28;20566;-42
2022/02/21 07:39:06;;;;;;;7.33;1.97;;;4.30;99.90;;;;;;5061406;28;20225;-42
2022/02/21 07:41:33;;;;;;;9.87;1.57;;;4.40;99.90;;;;;;5069950;28;20198;-44
2022/02/21 07:44:00;;;;;;;8.17;1.37;;;4.40;99.90;;;;;;5074074;28;20259;-45
2022/02/21 07:46:27;;;;;;;4.77;1.90;;;4.40;99.90;;;;;;5064413;28;20695;-45
2022/02/21 07:48:55;;;;;;;6.23;1.10;;;4.40;99.90;;;;;;5053097;28;20282;-43
2022/02/21 07:51:22;;;;;;;7.27;1.80;;;4.30;99.90;;;;;;5068033;28;20516;-43
2022/02/21 07:53:49;;;;;;;14.63;2.57;;;4.20;99.90;;;;;;5064225;28;20195;-44
2022/02/21 07:56:15;;;;;;;9.10;2.17;;;4.20;99.90;;;;;;5062651;28;20925;-43
2022/02/21 07:58:42;;;;;;;9.07;2.63;;;4.10;99.90;;;;;;5065205;28;20209;-42
2022/02/21 08:01:09;;;;;;;11.20;2.20;;;4.10;99.90;;;;;;5054602;28;20205;-43
2022/02/21 08:03:37;;;;;;;10.93;2.60;;;4.00;99.90;;;;;;5051441;28;20218;-45
2022/02/21 08:06:06;;;;;;;11.10;2.00;;;4.00;99.90;;;;;;5060866;28;20198;-43
2022/02/21 08:08:33;;;;;;;10.63;2.03;;;3.90;99.90;;;;;;5065342;28;20194;-43
2022/02/21 08:11:00;;;;;;;7.40;1.53;;;3.80;99.90;;;;;;5061944;28;20229;-43
2022/02/21 08:13:27;;;;;;;8.43;1.37;;;3.70;99.90;;;;;;5065080;28;20218;-43
2022/02/21 08:15:53;;;;;;;5.87;1.00;;;3.40;99.90;;;;;;5056319;28;20198;-45
2022/02/21 08:18:20;;;;;;;6.30;1.63;;;3.20;99.90;;;;;;5049982;28;20331;-42
2022/02/21 08:20:48;;;;;;;8.00;1.40;;;2.90;99.90;;;;;;5063673;28;20224;-44
2022/02/21 08:23:15;;;;;;;8.63;1.03;;;2.60;99.90;;;;;;5062507;28;20293;-43
2022/02/21 08:25:42;;;;;;;3.37;1.23;;;2.50;99.90;;;;;;5064995;28;20889;-45
2022/02/21 08:28:09;;;;;;;2.57;1.17;;;2.30;99.90;;;;;;5060989;28;20214;-43
2022/02/21 08:30:36;;;;;;;3.37;1.00;;;2.20;99.90;;;;;;5057919;28;20234;-43
2022/02/21 08:33:02;;;;;;;8.60;1.80;;;2.10;99.90;;;;;;5060903;28;20202;-44
2022/02/21 08:35:29;;;;;;;5.17;1.43;;;2.10;99.90;;;;;;5051111;28;20285;-44
2022/02/21 08:37:56;;;;;;;11.07;1.73;;;2.00;99.90;;;;;;5061926;28;20194;-45
2022/02/21 08:40:24;;;;;;;3.37;1.37;;;2.00;99.90;;;;;;5064021;28;20249;-42
2022/02/21 08:42:51;;;;;;;5.77;1.63;;;2.00;99.90;;;;;;5063116;28;20564;-45
2022/02/21 08:45:18;;;;;;;8.63;1.43;;;1.90;99.90;;;;;;5062576;28;20854;-44
2022/02/21 08:47:46;;;;;;;10.87;2.10;;;1.90;99.90;;;;;;5057032;28;20229;-46
2022/02/21 08:50:13;;;;;;;15.37;2.70;;;1.80;99.90;;;;;;5047441;28;20972;-44
2022/02/21 08:52:41;;;;;;;14.23;3.10;;;1.70;99.90;;;;;;5064284;28;20282;-46
2022/02/21 08:55:08;;;;;;;27.20;5.60;;;1.70;99.90;;;;;;5060477;28;20394;-45
2022/02/21 08:57:37;;;;;;;11.10;2.27;;;1.60;99.90;;;;;;5064346;28;20822;-42
2022/02/21 09:00:06;;;;;;;1.83;0.83;;;1.60;99.90;;;;;;5060337;28;20219;-43
2022/02/21 09:02:33;;;;;;;3.83;1.10;;;1.60;99.90;;;;;;5057386;28;20203;-42
2022/02/21 09:04:59;;;;;;;12.00;1.87;;;1.60;99.90;;;;;;5046929;28;20602;-43
2022/02/21 09:07:26;;;;;;;8.07;1.97;;;1.60;99.90;;;;;;5063380;28;20222;-42
2022/02/21 09:09:53;;;;;;;2.57;1.10;;;1.60;99.90;;;;;;5062199;28;20214;-41
2022/02/21 09:12:20;;;;;;;3.10;0.93;;;1.60;99.90;;;;;;5062441;28;20199;-43
2022/02/21 09:14:50;;;;;;;5.83;1.27;;;1.60;99.90;;;;;;5063378;28;20230;-43
2022/02/21 09:17:17;;;;;;;10.83;2.03;;;1.60;99.90;;;;;;5054261;28;22515;-42
2022/02/21 09:19:45;;;;;;;9.40;2.50;;;1.60;99.90;;;;;;5062726;28;20215;-42
2022/02/21 09:22:12;;;;;;;15.07;2.73;;;1.60;99.90;;;;;;5050475;28;20194;-44
2022/02/21 09:24:38;;;;;;;9.73;2.57;;;1.60;99.90;;;;;;5063758;28;20218;-43
2022/02/21 09:27:06;;;;;;;11.37;2.73;;;1.70;99.90;;;;;;5059480;28;20218;-44
2022/02/21 09:29:35;;;;;;;9.97;2.23;;;1.70;99.90;;;;;;5063608;28;20237;-43
2022/02/21 09:32:03;;;;;;;23.63;5.37;;;1.70;99.90;;;;;;5053830;28;20233;-43
2022/02/21 09:34:32;;;;;;;9.30;2.57;;;1.70;99.90;;;;;;5061325;28;20706;-43
2022/02/21 09:36:59;;;;;;;5.40;2.13;;;1.70;99.90;;;;;;5046510;28;20572;-44
2022/02/21 09:39:25;;;;;;;6.03;2.10;;;1.80;99.90;;;;;;5063212;28;20221;-42
2022/02/21 09:41:54;;;;;;;9.50;2.00;;;1.80;99.90;;;;;;5061475;28;20209;-42
2022/02/21 09:44:21;;;;;;;4.30;1.43;;;1.90;99.90;;;;;;5062388;28;20198;-43
2022/02/21 09:46:49;;;;;;;9.13;2.30;;;2.00;99.90;;;;;;5062146;28;20214;-44
2022/02/21 09:49:19;;;;;;;14.13;2.33;;;2.10;99.90;;;;;;5054191;28;20218;-45
2022/02/21 09:51:46;;;;;;;8.23;1.83;;;2.20;99.90;;;;;;5049488;28;20230;-43
2022/02/21 09:54:13;;;;;;;12.00;2.23;;;2.30;99.90;;;;;;5060287;28;20194;-44
2022/02/21 09:56:42;;;;;;;15.97;2.60;;;2.40;99.90;;;;;;5063457;28;20244;-44
2022/02/21 09:59:10;;;;;;;10.57;2.30;;;2.50;99.90;;;;;;5059541;28;20982;-44
2022/02/21 10:01:38;;;;;;;9.03;2.07;;;2.60;99.90;;;;;;5063442;28;20191;-42
2022/02/21 10:04:05;;;;;;;16.27;3.23;;;2.80;99.90;;;;;;5052382;28;20194;-45
2022/02/21 10:06:33;;;;;;;10.63;2.33;;;2.90;99.90;;;;;;5049250;28;20198;-45
2022/02/21 10:09:04;;;;;;;12.70;2.83;;;3.10;99.90;;;;;;5059566;28;20218;-44
2022/02/21 10:11:32;;;;;;;6.13;2.10;;;3.20;99.90;;;;;;5063430;28;20251;-46
2022/02/21 10:14:00;;;;;;;10.30;2.53;;;3.40;99.90;;;;;;5059900;28;20205;-44
2022/02/21 10:16:38;;;;;;;17.63;4.80;;;3.50;99.90;;;;;;5062163;28;20281;-49
2022/02/21 10:19:13;;;;;;;17.60;3.20;;;3.60;99.90;;;;;;5052117;28;20214;-43
2022/02/21 10:21:59;;;;;;;11.70;2.43;;;3.70;99.90;;;;;;5049944;28;20577;-43
2022/02/21 10:24:27;;;;;;;11.07;2.33;;;3.80;99.90;;;;;;5063096;28;20248;-43
2022/02/21 10:26:57;;;;;;;9.10;2.50;;;3.90;99.90;;;;;;5060369;28;20195;-44
2022/02/21 10:29:24;;;;;;;23.00;4.20;;;4.00;99.90;;;;;;5062420;28;20242;-45
2022/02/21 10:31:51;;;;;;;11.70;2.87;;;4.10;99.90;;;;;;5061514;28;20682;-44
2022/02/21 10:34:17;;;;;;;9.00;2.70;;;4.10;99.90;;;;;;5054069;28;20505;-48
2022/02/21 10:36:46;;;;;;;11.90;2.13;;;4.20;99.90;;;;;;5059905;28;20256;-45
2022/02/21 10:39:16;;;;;;;11.90;2.57;;;4.30;99.90;;;;;;5050591;28;20224;-44
2022/02/21 10:41:46;;;;;;;13.83;3.23;;;4.30;99.90;;;;;;5062844;28;20210;-42
2022/02/21 10:44:22;;;;;;;7.07;2.00;;;4.50;99.90;;;;;;5059770;28;20455;-43
2022/02/21 10:47:07;;;;;;;5.60;1.90;;;4.50;99.90;;;;;;5061252;28;20628;-43
2022/02/21 10:49:34;;;;;;;8.73;2.07;;;4.60;99.90;;;;;;5062843;28;20687;-44
2022/02/21 10:52:03;;;;;;;8.83;2.70;;;4.60;99.90;;;;;;5039504;28;20210;-43
2022/02/21 10:54:32;;;;;;;7.97;2.00;;;4.70;99.90;;;;;;5059968;28;20965;-41
2022/02/21 10:56:59;;;;;;;11.53;3.17;;;4.80;99.90;;;;;;5059223;28;20203;-43
2022/02/21 10:59:28;;;;;;;9.03;2.30;;;4.90;99.90;;;;;;5062100;28;20219;-42
2022/02/21 11:01:56;;;;;;;10.00;2.87;;;5.00;99.90;;;;;;5060133;28;20285;-43
2022/02/21 11:04:24;;;;;;;13.23;2.50;;;5.00;99.90;;;;;;5061817;28;20451;-41
2022/02/21 11:06:51;;;;;;;14.23;3.00;;;5.00;99.90;;;;;;5053662;28;20207;-43
2022/02/21 11:09:20;;;;;;;11.47;3.13;;;5.00;99.90;;;;;;5047152;28;20429;-43
2022/02/21 11:11:50;;;;;;;16.53;3.77;;;5.00;99.90;;;;;;5061825;28;20244;-43
2022/02/21 11:14:19;;;;;;;12.80;3.27;;;5.00;99.90;;;;;;5060198;28;20202;-45
2022/02/21 11:16:47;;;;;;;15.00;3.30;;;4.90;99.90;;;;;;5061951;28;20660;-49
2022/02/21 11:19:15;;;;;;;18.97;3.77;;;4.90;99.90;;;;;;5059877;28;20223;-43
2022/02/21 11:21:43;;;;;;;11.53;2.37;;;4.90;99.90;;;;;;5055865;28;20214;-45
2022/02/21 11:24:10;;;;;;;5.23;1.60;;;4.80;99.90;;;;;;5045025;28;20327;-42
2022/02/21 11:26:39;;;;;;;10.87;2.57;;;4.80;99.90;;;;;;5061862;28;20199;-42
2022/02/21 11:29:16;;;;;;;14.77;4.83;;;4.80;99.90;;;;;;5061734;28;20233;-45
2022/02/21 11:31:43;;;;;;;7.20;1.40;;;4.80;99.90;;;;;;5065831;28;20199;-47
2022/02/21 11:34:10;;;;;;;6.13;2.23;;;4.70;99.90;;;;;;5062024;28;20197;-45
2022/02/21 11:36:38;;;;;;;8.57;2.00;;;4.70;99.90;;;;;;5059013;28;20744;-47
2022/02/21 11:39:19;;;;;;;8.70;2.53;;;4.70;99.90;;;;;;5061656;28;20652;-46
2022/02/21 11:41:46;;;;;;;5.70;2.20;;;4.70;99.90;;;;;;5048857;28;20211;-44
2022/02/21 11:44:24;;;;;;;12.10;2.67;;;4.70;99.90;;;;;;5057403;28;20201;-44
2022/02/21 11:46:50;;;;;;;18.60;5.00;;;4.70;99.90;;;;;;5063964;28;20190;-43
2022/02/21 11:49:26;;;;;;;4.53;2.00;;;4.70;99.90;;;;;;5063254;28;20214;-44
2022/02/21 11:51:53;;;;;;;6.33;2.70;;;4.70;99.90;;;;;;5056843;28;20206;-45
2022/02/21 11:54:39;;;;;;;7.07;2.70;;;4.70;99.90;;;;;;5063872;28;20190;-48
2022/02/21 11:57:08;;;;;;;5.83;2.73;;;4.70;99.90;;;;;;5047626;28;20989;-44
2022/02/21 11:59:36;;;;;;;4.10;1.73;;;4.70;99.90;;;;;;5065153;28;20218;-46
2022/02/21 12:02:07;;;;;;;5.70;1.97;;;4.60;99.90;;;;;;5061318;28;20206;-47
2022/02/21 12:04:52;;;;;;;13.57;3.53;;;4.60;99.90;;;;;;5065085;28;20202;-45
2022/02/21 12:07:27;;;;;;;5.43;1.67;;;4.60;99.90;;;;;;5059924;28;20566;-42
2022/02/21 12:10:22;;;;;;;8.13;1.87;;;4.60;99.90;;;;;;5082209;28;20228;-48
2022/02/21 12:12:58;;;;;;;7.83;2.10;;;4.60;99.90;;;;;;5060648;28;20214;-46
2022/02/21 12:15:29;;;;;;;11.77;2.77;;;4.50;99.90;;;;;;5060970;28;20206;-44
2022/02/21 12:18:24;;;;;;;2.07;1.20;;;4.50;99.90;;;;;;5062341;28;20332;-42
2022/02/21 12:20:51;;;;;;;5.80;1.83;;;4.40;99.90;;;;;;5063551;28;20229;-42
2022/02/21 12:23:20;;;;;;;5.07;1.50;;;4.30;99.90;;;;;;5055892;28;20213;-43
2022/02/21 12:26:18;;;;;;;9.40;2.77;;;4.30;99.90;;;;;;5064067;28;20281;-43
2022/02/21 12:28:45;;;;;;;6.10;1.67;;;4.30;99.90;;;;;;5047380;28;20229;-42
2022/02/21 12:31:26;;;;;;;5.70;1.57;;;4.30;99.90;;;;;;5058346;28;20201;-43
2022/02/21 12:33:58;;;;;;;4.07;1.50;;;4.30;99.90;;;;;;5062614;28;20198;-43
2022/02/21 12:36:32;;;;;;;4.53;1.27;;;4.30;99.90;;;;;;5063738;28;20198;-42
2022/02/21 12:39:00;;;;;;;5.33;1.77;;;4.30;99.90;;;;;;5053861;28;20205;-41
2022/02/21 12:41:32;;;;;;;11.60;2.80;;;4.20;99.90;;;;;;5065154;28;20225;-42
2022/02/21 12:44:02;;;;;;;8.87;1.30;;;4.30;99.90;;;;;;5055760;28;20248;-43
2022/02/21 12:46:33;;;;;;;5.90;1.30;;;4.30;99.90;;;;;;5061477;28;20221;-44
2022/02/21 12:49:01;;;;;;;11.73;2.70;;;4.20;99.90;;;;;;5060947;28;20214;-41
2022/02/21 12:51:29;;;;;;;19.63;4.03;;;4.20;99.90;;;;;;5064784;28;20555;-43
2022/02/21 12:54:03;;;;;;;3.13;1.10;;;4.20;99.90;;;;;;5054743;28;20205;-44
2022/02/21 12:56:40;;;;;;;12.40;2.93;;;4.10;99.90;;;;;;5064231;28;20198;-43
2022/02/21 12:59:07;;;;;;;2.47;0.87;;;4.10;99.90;;;;;;5046596;28;21672;-42